This is the latest recevied weather packets stored in our database for station/object KN6KDD. If no packets are shown the sender has not sent any weather packets the latest 10 day(s).
| Time | Temp. | Humidity | Pressure | Rain* | Wind** | Luminosity | Snow |
|---|---|---|---|---|---|---|---|
| 1777051118 | 12.78° C | 83% | 1351.8 hPa | 0 mm | - | 685 W/m² | - |
| 1777050813 | 12.78° C | 82% | 1352.1 hPa | 0 mm | - | 670 W/m² | - |
| 1777050509 | 12.78° C | 84% | 1352.1 hPa | 0 mm | - | 654 W/m² | - |
| 1777050208 | 12.22° C | 84% | 1352.2 hPa | 0 mm | - | 638 W/m² | - |
| 1777049904 | 12.22° C | 86% | 1352 hPa | 0 mm | - | 624 W/m² | - |
| 1777049604 | 11.67° C | 87% | 1352.3 hPa | 0 mm | - | 613 W/m² | - |
| 1777049302 | 12.22° C | 85% | 1352.1 hPa | 0 mm | - | 595 W/m² | - |
| 1777048998 | 11.67° C | 87% | 1352.3 hPa | 0 mm | - | 589 W/m² | - |
| 1777048694 | 11.11° C | 87% | 1352.3 hPa | 0 mm | - | 581 W/m² | - |
| 1777048389 | 11.11° C | 87% | 1352.3 hPa | 0 mm | - | 560 W/m² | - |
| 1777048088 | 11.11° C | 88% | 1352.2 hPa | 0 mm | - | 561 W/m² | - |
| 1777047784 | 11.11° C | 88% | 1352.5 hPa | 0 mm | - | 526 W/m² | - |
| 1777047481 | 11.11° C | 90% | 1352.2 hPa | 0 mm | - | 505 W/m² | - |
| 1777047175 | 10.56° C | 91% | 1352.5 hPa | 0 mm | - | 490 W/m² | - |
| 1777046872 | 10.56° C | 92% | 1352.6 hPa | 0 mm | - | 470 W/m² | - |
| 1777046569 | 10° C | 94% | 1352.5 hPa | 0 mm | - | 428 W/m² | - |
| 1777046264 | 10° C | 95% | 1352.5 hPa | 0 mm | - | 415 W/m² | - |
| 1777045959 | 9.44° C | 97% | 1352.6 hPa | 0 mm | - | 346 W/m² | - |
| 1777045656 | 8.33° C | 98% | 1352.6 hPa | 0 mm | - | 161 W/m² | - |
| 1777045353 | 8.33° C | 99% | 1352.6 hPa | 0 mm | - | 156 W/m² | - |
| 1777045048 | 8.33° C | 99% | 1352.6 hPa | 0 mm | - | 226 W/m² | - |
| 1777044744 | 8.33° C | 99% | 1352.9 hPa | 0 mm | - | 213 W/m² | - |
| 1777044441 | 7.78° C | 99% | 1352.6 hPa | 0 mm | - | 190 W/m² | - |
| 1777044140 | 7.78° C | 99% | 1352.6 hPa | 0 mm | - | 206 W/m² | - |
| 1777043837 | 7.78° C | 99% | 1352.3 hPa | 0 mm | - | 163 W/m² | - |
* Rain latest hour (hover to see other rain measurements)
** Current wind speed in m/s (hover to see current wind gust speed)